Time;durP1;ratioP1;P1;durP2;ratioP2;P2;SDS_P1;SDS_P2;PMS_P1;PMS_P2;Temp;Humidity;BMP_temperature;BMP_pressure;BME280_temperature;BME280_humidity;BME280_pressure;Samples;Min_cycle;Max_cycle;Signal;HPM_P1;HPM_P2
2023/06/23 00:00:00;;;;;;;11.93;8.57;;;18.90;99.90;;;;;;5011739;28;20426;-78
2023/06/23 00:02:27;;;;;;;13.10;8.98;;;18.40;99.90;;;;;;5012679;28;20503;-78
2023/06/23 00:04:53;;;;;;;12.27;8.75;;;18.30;99.90;;;;;;5006848;28;20945;-78
2023/06/23 00:07:19;;;;;;;12.07;9.20;;;18.30;99.90;;;;;;5011805;28;20415;-79
2023/06/23 00:09:44;;;;;;;11.47;8.90;;;18.40;99.90;;;;;;5012669;28;20449;-78
2023/06/23 00:12:10;;;;;;;11.93;8.83;;;18.30;99.90;;;;;;5013551;28;20410;-79
2023/06/23 00:14:36;;;;;;;12.98;9.30;;;18.60;99.90;;;;;;5030764;28;20438;-79
2023/06/23 00:17:03;;;;;;;12.87;9.30;;;18.60;99.90;;;;;;5016991;22;20518;-77
2023/06/23 00:19:31;;;;;;;12.82;9.52;;;18.30;99.90;;;;;;4975999;28;20518;-77
2023/06/23 00:21:58;;;;;;;14.52;9.88;;;18.30;99.90;;;;;;4990485;28;20488;-77
2023/06/23 00:24:27;;;;;;;12.35;9.13;;;18.30;99.90;;;;;;4983653;28;20399;-77
2023/06/23 00:26:53;;;;;;;13.27;9.88;;;18.30;99.90;;;;;;4974363;28;20408;-77
2023/06/23 00:29:33;;;;;;;13.30;9.90;;;18.30;99.90;;;;;;4973145;28;20431;-79
2023/06/23 00:32:02;;;;;;;12.15;9.50;;;18.20;99.90;;;;;;4979114;28;20428;-79
2023/06/23 00:34:29;;;;;;;13.27;9.55;;;18.30;99.90;;;;;;4972362;28;20510;-79
2023/06/23 00:36:58;;;;;;;13.88;9.75;;;18.20;99.90;;;;;;4975964;28;20523;-79
2023/06/23 00:39:53;;;;;;;12.27;9.60;;;18.20;99.90;;;;;;4998326;28;20458;-79
2023/06/23 00:42:21;;;;;;;13.57;9.88;;;18.20;99.90;;;;;;4999809;28;20403;-79
2023/06/23 00:45:47;;;;;;;13.65;9.52;;;18.30;99.90;;;;;;4967823;28;20795;-79
2023/06/23 00:48:40;;;;;;;12.38;9.82;;;18.20;99.90;;;;;;4975869;28;20412;-79
2023/06/23 00:52:16;;;;;;;14.17;10.07;;;18.20;99.90;;;;;;5021061;28;20895;-79
2023/06/23 00:55:21;;;;;;;12.82;10.15;;;18.20;99.90;;;;;;4989544;28;20420;-80
2023/06/23 00:58:08;;;;;;;13.50;10.23;;;18.20;99.90;;;;;;4985090;28;20439;-79
2023/06/23 01:00:37;;;;;;;13.13;10.27;;;18.20;99.90;;;;;;4987404;28;20432;-79
2023/06/23 01:03:25;;;;;;;13.40;10.50;;;18.20;99.90;;;;;;4994201;28;20411;-79
2023/06/23 01:06:21;;;;;;;14.55;10.88;;;18.20;99.90;;;;;;5012047;28;20558;-80
2023/06/23 01:09:49;;;;;;;13.98;10.93;;;18.20;99.90;;;;;;4970625;28;20421;-80
2023/06/23 01:12:57;;;;;;;14.93;11.15;;;18.20;99.90;;;;;;4989387;28;20503;-80
2023/06/23 01:16:21;;;;;;;14.10;11.20;;;18.10;99.90;;;;;;4985082;28;20676;-80
2023/06/23 01:19:27;;;;;;;14.68;11.65;;;18.10;99.90;;;;;;4980301;28;20800;-80
2023/06/23 01:22:59;;;;;;;16.23;11.65;;;18.10;99.90;;;;;;4994044;28;20443;-80
2023/06/23 01:26:03;;;;;;;17.25;11.90;;;18.10;99.90;;;;;;4970872;28;20425;-79
2023/06/23 01:28:54;;;;;;;15.65;11.52;;;18.10;99.90;;;;;;4986574;28;20414;-79
2023/06/23 01:31:48;;;;;;;15.25;11.50;;;18.10;99.90;;;;;;4995370;28;20408;-80
2023/06/23 01:34:22;;;;;;;15.57;11.95;;;18.10;99.90;;;;;;4977619;28;20411;-80
2023/06/23 01:37:11;;;;;;;15.30;12.03;;;18.30;99.90;;;;;;5017007;28;20416;-80
2023/06/23 01:39:49;;;;;;;15.87;12.70;;;18.00;99.90;;;;;;4982432;28;20509;-80
2023/06/23 01:42:25;;;;;;;15.77;12.55;;;18.10;99.90;;;;;;5010936;28;20411;-80
2023/06/23 01:45:11;;;;;;;15.15;12.68;;;18.10;99.90;;;;;;4972273;28;20432;-80
2023/06/23 01:48:06;;;;;;;15.63;13.15;;;18.00;99.90;;;;;;5001362;28;20412;-80
2023/06/23 01:50:54;;;;;;;14.55;12.63;;;18.00;99.90;;;;;;4993500;28;20905;-81
2023/06/23 01:53:45;;;;;;;18.67;13.57;;;18.00;99.90;;;;;;4977402;28;20416;-80
2023/06/23 01:56:34;;;;;;;16.05;14.18;;;18.00;99.90;;;;;;4983915;28;20472;-80
2023/06/23 01:59:42;;;;;;;17.42;14.35;;;18.00;99.90;;;;;;5002551;28;20431;-80
2023/06/23 02:02:26;;;;;;;17.70;15.30;;;18.00;99.90;;;;;;5010193;28;20399;-80
2023/06/23 02:05:30;;;;;;;16.80;14.60;;;18.00;99.90;;;;;;4970958;28;20470;-80
2023/06/23 02:08:13;;;;;;;17.42;15.23;;;18.00;99.90;;;;;;4989887;28;20421;-80
2023/06/23 02:10:42;;;;;;;17.05;15.25;;;18.00;99.90;;;;;;4982363;28;20448;-80
2023/06/23 02:13:11;;;;;;;18.83;15.85;;;18.00;99.90;;;;;;4978549;28;20400;-80
2023/06/23 02:15:40;;;;;;;20.52;16.23;;;18.00;99.90;;;;;;4978981;28;20416;-80
2023/06/23 02:18:35;;;;;;;19.30;16.13;;;17.90;99.90;;;;;;4981264;28;20502;-80
2023/06/23 02:21:40;;;;;;;17.92;16.05;;;17.90;99.90;;;;;;5002223;28;20457;-79
2023/06/23 02:24:08;;;;;;;20.33;17.38;;;17.90;99.90;;;;;;5002312;28;20414;-80
2023/06/23 02:26:37;;;;;;;20.23;16.77;;;17.90;99.90;;;;;;5010429;28;20833;-80
2023/06/23 02:29:07;;;;;;;20.45;16.70;;;17.90;99.90;;;;;;4976120;28;20975;-80
2023/06/23 02:31:34;;;;;;;20.13;16.98;;;17.90;99.90;;;;;;4985674;28;20423;-79
2023/06/23 02:34:01;;;;;;;19.30;15.93;;;17.90;99.90;;;;;;4981849;28;20439;-80
2023/06/23 02:36:41;;;;;;;21.77;16.90;;;17.80;99.90;;;;;;4985368;28;20407;-80
2023/06/23 02:40:01;;;;;;;20.83;17.15;;;17.80;99.90;;;;;;4994243;28;20413;-81
2023/06/23 02:43:07;;;;;;;20.40;17.30;;;17.80;99.90;;;;;;5021968;28;20407;-80
2023/06/23 02:46:24;;;;;;;21.13;16.90;;;17.80;99.90;;;;;;5016980;28;20816;-80
2023/06/23 02:49:33;;;;;;;23.10;17.70;;;17.80;99.90;;;;;;4980897;28;20889;-80
2023/06/23 02:52:22;;;;;;;20.45;17.83;;;17.70;99.90;;;;;;4972769;28;20409;-80
2023/06/23 02:56:05;;;;;;;20.90;17.35;;;17.70;99.90;;;;;;5019361;28;20540;-80
2023/06/23 02:58:51;;;;;;;20.80;17.90;;;17.70;99.90;;;;;;5006711;28;20496;-80
2023/06/23 03:02:04;;;;;;;21.75;17.80;;;17.70;99.90;;;;;;4979226;28;20528;-80
2023/06/23 03:04:58;;;;;;;21.95;18.50;;;17.70;99.90;;;;;;4993984;28;20478;-80
2023/06/23 03:07:38;;;;;;;20.75;18.05;;;17.70;99.90;;;;;;5017212;28;20405;-80
2023/06/23 03:10:11;;;;;;;22.08;18.00;;;17.70;99.90;;;;;;4983752;28;20416;-80
2023/06/23 03:12:42;;;;;;;21.52;18.15;;;17.60;99.90;;;;;;4968983;28;20403;-81
2023/06/23 03:15:10;;;;;;;24.00;19.10;;;18.20;99.90;;;;;;4998578;28;21072;-80
2023/06/23 03:17:41;;;;;;;21.23;18.08;;;17.70;99.90;;;;;;4987751;28;20480;-80
2023/06/23 03:20:14;;;;;;;23.17;17.90;;;17.60;99.90;;;;;;4977463;28;20424;-80
2023/06/23 03:22:49;;;;;;;20.95;17.38;;;17.60;99.90;;;;;;4975637;28;20405;-80
2023/06/23 03:25:26;;;;;;;22.13;17.58;;;17.60;99.90;;;;;;4992298;28;20472;-80
2023/06/23 03:28:02;;;;;;;21.35;17.42;;;17.50;99.90;;;;;;4995007;28;20432;-81
2023/06/23 03:31:16;;;;;;;21.02;17.40;;;17.60;99.90;;;;;;4977040;28;20881;-81
2023/06/23 03:33:53;;;;;;;21.27;16.73;;;17.60;99.90;;;;;;4994065;28;20397;-81
2023/06/23 03:36:32;;;;;;;21.65;17.83;;;17.60;99.90;;;;;;4990228;28;20389;-80
2023/06/23 03:39:16;;;;;;;21.55;17.48;;;17.60;99.90;;;;;;4993806;28;20419;-80
2023/06/23 03:41:47;;;;;;;21.88;17.88;;;17.50;99.90;;;;;;4975267;28;20924;-80
2023/06/23 03:44:42;;;;;;;20.90;17.00;;;17.70;99.90;;;;;;4992063;28;20418;-80
2023/06/23 03:47:24;;;;;;;21.70;17.95;;;17.50;99.90;;;;;;4962156;28;20411;-81
2023/06/23 03:49:59;;;;;;;21.63;17.98;;;17.50;99.90;;;;;;4984293;28;20902;-80
2023/06/23 03:52:27;;;;;;;20.92;16.83;;;17.50;99.90;;;;;;4980603;28;20419;-81
2023/06/23 03:55:02;;;;;;;20.87;17.30;;;17.50;99.90;;;;;;4979329;28;20424;-80
2023/06/23 03:57:35;;;;;;;21.73;17.42;;;17.40;99.90;;;;;;4975091;28;20403;-80
2023/06/23 04:00:11;;;;;;;21.63;17.27;;;17.50;99.90;;;;;;4989662;28;20427;-81
2023/06/23 04:02:42;;;;;;;24.67;17.85;;;17.40;99.90;;;;;;5001525;28;20420;-80
2023/06/23 04:05:13;;;;;;;20.52;17.60;;;17.40;99.90;;;;;;4978773;28;20546;-80
2023/06/23 04:07:45;;;;;;;19.77;16.25;;;17.30;99.90;;;;;;5020171;28;20449;-81
2023/06/23 04:10:12;;;;;;;21.05;17.45;;;17.40;99.90;;;;;;4981469;28;20507;-80
2023/06/23 04:12:40;;;;;;;21.60;17.38;;;17.40;99.90;;;;;;4983652;28;20407;-80
2023/06/23 04:15:28;;;;;;;20.20;17.52;;;17.40;99.90;;;;;;5014181;28;20463;-80
2023/06/23 04:18:53;;;;;;;20.75;17.00;;;17.40;99.90;;;;;;4996242;28;20399;-80
2023/06/23 04:22:10;;;;;;;21.52;17.95;;;17.40;99.90;;;;;;4962700;28;20396;-80
2023/06/23 04:29:00;;;;;;;20.60;17.30;;;17.30;99.90;;;;;;4918861;29;20448;-81
2023/06/23 04:33:00;;;;;;;20.80;17.70;;;17.30;99.90;;;;;;4858538;29;20413;-81
2023/06/23 04:40:19;;;;;;;21.25;17.90;;;17.40;99.90;;;;;;4880650;29;20453;-80
2023/06/23 04:43:15;;;;;;;19.33;16.83;;;17.30;99.90;;;;;;4911928;29;20420;-80
2023/06/23 04:49:35;;;;;;;20.27;17.15;;;17.40;99.90;;;;;;4911290;29;20396;-79
2023/06/23 04:52:15;;;;;;;21.25;17.20;;;17.40;99.90;;;;;;4929886;28;20421;-81
2023/06/23 04:58:35;;;;;;;21.10;16.80;;;17.40;99.90;;;;;;4915390;28;20416;-80
2023/06/23 05:01:13;;;;;;;20.30;17.13;;;17.40;99.90;;;;;;4968996;28;20420;-80
2023/06/23 05:03:58;;;;;;;19.53;16.80;;;17.40;99.90;;;;;;5004571;28;20480;-79
2023/06/23 05:06:25;;;;;;;20.52;16.98;;;17.50;99.90;;;;;;5019662;28;20424;-80
2023/06/23 05:08:53;;;;;;;21.17;16.92;;;17.50;99.90;;;;;;5014098;28;20915;-80
2023/06/23 05:11:21;;;;;;;22.47;17.77;;;18.00;99.90;;;;;;5013256;28;20416;-80
2023/06/23 05:13:48;;;;;;;23.15;18.55;;;17.90;99.90;;;;;;5014559;28;20407;-80
2023/06/23 05:16:16;;;;;;;22.35;18.45;;;17.50;99.90;;;;;;4999903;28;20445;-81
2023/06/23 05:18:45;;;;;;;22.65;18.60;;;17.90;99.90;;;;;;5006016;28;20410;-80
2023/06/23 05:21:13;;;;;;;23.58;19.90;;;17.50;99.90;;;;;;4989864;28;20928;-80
2023/06/23 05:23:40;;;;;;;22.45;19.25;;;18.20;99.90;;;;;;5003978;28;20442;-80
2023/06/23 05:26:08;;;;;;;22.38;19.30;;;17.60;99.90;;;;;;4990355;28;20432;-78
2023/06/23 05:28:36;;;;;;;24.52;21.25;;;18.90;99.90;;;;;;4995222;28;20403;-79
2023/06/23 05:31:04;;;;;;;25.20;21.25;;;17.60;99.90;;;;;;5014001;28;20401;-80
2023/06/23 05:33:34;;;;;;;25.77;20.67;;;17.50;99.90;;;;;;5013850;28;20753;-79
2023/06/23 05:36:02;;;;;;;25.15;21.27;;;18.50;99.90;;;;;;4991035;28;20489;-80
2023/06/23 05:38:30;;;;;;;26.35;21.42;;;17.50;99.90;;;;;;4979434;28;20539;-79
2023/06/23 05:40:56;;;;;;;27.15;22.00;;;17.50;99.90;;;;;;5022410;28;20480;-79
2023/06/23 05:43:22;;;;;;;25.92;21.55;;;17.50;99.90;;;;;;4998342;28;21014;-80
2023/06/23 05:45:49;;;;;;;26.70;22.08;;;16.40;99.90;;;;;;4997223;28;20436;-79
2023/06/23 05:48:36;;;;;;;26.95;22.25;;;17.50;99.90;;;;;;5006143;28;20419;-79
2023/06/23 05:51:06;;;;;;;25.90;22.93;;;17.80;99.90;;;;;;5023258;28;20446;-79
2023/06/23 05:53:34;;;;;;;27.48;23.20;;;17.50;99.90;;;;;;5011152;28;20505;-79
2023/06/23 05:56:14;;;;;;;28.23;22.88;;;17.50;99.90;;;;;;5003948;28;20974;-79
2023/06/23 05:58:44;;;;;;;27.65;23.20;;;17.50;99.90;;;;;;5015636;28;20535;-79
2023/06/23 06:01:14;;;;;;;28.27;23.80;;;17.90;99.90;;;;;;5013954;28;20428;-79
2023/06/23 06:03:46;;;;;;;29.08;24.55;;;17.80;99.90;;;;;;4997502;28;20492;-79
2023/06/23 06:06:13;;;;;;;27.83;23.25;;;17.60;99.90;;;;;;5006444;28;20980;-79
2023/06/23 06:08:41;;;;;;;30.48;23.85;;;17.60;99.90;;;;;;5013706;28;20424;-79
2023/06/23 06:11:09;;;;;;;28.58;23.42;;;17.60;99.90;;;;;;5020761;28;20403;-79
2023/06/23 06:13:43;;;;;;;26.93;23.17;;;17.70;99.90;;;;;;5024472;28;20925;-79
2023/06/23 06:18:46;;;;;;;27.13;22.17;;;17.70;99.90;;;;;;5008664;28;20806;-63
2023/06/23 06:21:15;;;;;;;24.27;21.00;;;17.70;99.90;;;;;;5006657;28;20854;-63
2023/06/23 06:23:42;;;;;;;25.53;21.60;;;17.70;99.90;;;;;;5010268;28;20397;-63
2023/06/23 06:26:09;;;;;;;25.55;20.80;;;17.80;99.90;;;;;;5000957;28;20422;-63
2023/06/23 06:28:38;;;;;;;25.90;20.65;;;17.80;99.90;;;;;;4987802;28;20757;-63
2023/06/23 06:31:06;;;;;;;23.10;19.23;;;17.80;99.90;;;;;;4986345;28;20411;-62
2023/06/23 06:33:33;;;;;;;22.27;18.40;;;17.80;99.90;;;;;;4973796;28;20813;-63
2023/06/23 06:36:03;;;;;;;22.48;19.13;;;17.90;99.90;;;;;;4987365;28;20497;-61
2023/06/23 06:38:34;;;;;;;23.47;18.23;;;17.90;99.90;;;;;;5002547;28;20487;-62
2023/06/23 06:41:03;;;;;;;21.65;17.85;;;18.00;99.90;;;;;;4986534;28;20410;-63
2023/06/23 06:43:28;;;;;;;21.08;17.17;;;18.00;99.90;;;;;;4977921;28;20407;-63
2023/06/23 06:45:55;;;;;;;21.83;16.80;;;18.00;99.90;;;;;;4997118;28;20532;-63
2023/06/23 06:48:25;;;;;;;18.20;15.52;;;18.00;99.90;;;;;;4992619;28;20418;-63
2023/06/23 06:50:51;;;;;;;18.02;15.02;;;18.00;99.90;;;;;;4990748;28;20391;-63
2023/06/23 06:53:18;;;;;;;20.77;16.47;;;18.10;99.90;;;;;;4989283;28;20409;-61
2023/06/23 06:55:45;;;;;;;18.40;15.45;;;18.10;99.90;;;;;;4982519;28;20400;-62
2023/06/23 06:58:11;;;;;;;17.80;14.57;;;18.10;99.90;;;;;;4977927;28;20402;-63
2023/06/23 07:00:36;;;;;;;17.87;14.03;;;18.20;99.90;;;;;;4985053;28;20409;-63
2023/06/23 07:03:04;;;;;;;17.10;13.50;;;18.20;99.90;;;;;;4970558;28;20461;-63
2023/06/23 07:05:29;;;;;;;17.63;13.07;;;18.20;99.90;;;;;;4979496;28;20442;-63
2023/06/23 07:07:55;;;;;;;15.53;12.80;;;18.20;99.90;;;;;;4989295;28;20801;-63
2023/06/23 07:10:20;;;;;;;15.63;12.80;;;18.20;99.90;;;;;;4986087;28;20399;-63
2023/06/23 07:12:46;;;;;;;14.93;11.80;;;18.30;99.90;;;;;;4982453;28;20473;-63
2023/06/23 07:15:12;;;;;;;14.60;11.63;;;18.30;99.90;;;;;;4987604;28;20490;-61
2023/06/23 07:17:38;;;;;;;18.50;11.60;;;18.30;99.90;;;;;;4998818;28;20489;-63
2023/06/23 07:20:04;;;;;;;14.35;10.98;;;18.40;99.90;;;;;;4987856;28;20480;-63
2023/06/23 07:22:33;;;;;;;13.98;10.50;;;18.40;99.90;;;;;;4977276;28;20420;-62
2023/06/23 07:24:58;;;;;;;14.40;10.57;;;18.50;99.90;;;;;;4978546;28;20470;-62
2023/06/23 07:27:25;;;;;;;12.67;10.67;;;18.50;99.90;;;;;;4984774;28;20817;-61
2023/06/23 07:29:51;;;;;;;15.20;9.75;;;18.50;99.90;;;;;;4980534;28;20399;-62
2023/06/23 07:32:17;;;;;;;12.07;9.77;;;18.50;99.90;;;;;;4990620;28;20425;-62
2023/06/23 07:34:42;;;;;;;12.98;9.25;;;18.60;99.90;;;;;;4982507;28;20434;-61
2023/06/23 07:37:08;;;;;;;12.10;8.85;;;18.60;99.90;;;;;;4977529;28;20423;-63
2023/06/23 07:39:35;;;;;;;11.60;8.82;;;18.60;99.90;;;;;;4961574;28;20501;-63
2023/06/23 07:42:01;;;;;;;12.32;9.00;;;18.70;99.90;;;;;;4982110;28;20449;-62
2023/06/23 07:44:27;;;;;;;12.95;8.85;;;18.70;99.90;;;;;;4989505;28;20433;-62
2023/06/23 07:46:53;;;;;;;12.10;8.80;;;18.80;99.90;;;;;;4973470;28;20906;-61
2023/06/23 07:49:19;;;;;;;13.48;8.63;;;18.80;99.90;;;;;;4983375;28;20409;-63
2023/06/23 07:51:44;;;;;;;10.27;8.18;;;18.80;99.90;;;;;;4989842;28;20398;-62
2023/06/23 07:54:10;;;;;;;11.80;7.60;;;18.90;99.90;;;;;;4988182;28;20406;-63
2023/06/23 07:56:36;;;;;;;10.63;7.10;;;18.90;99.90;;;;;;4983991;28;20430;-63
2023/06/23 07:59:01;;;;;;;9.57;7.10;;;18.90;99.90;;;;;;4983247;28;20437;-63
2023/06/23 08:01:27;;;;;;;9.33;6.57;;;18.90;99.90;;;;;;4978265;28;20415;-61
2023/06/23 08:03:53;;;;;;;7.82;5.60;;;19.10;99.90;;;;;;4981730;28;20798;-63
2023/06/23 08:06:23;;;;;;;7.95;5.70;;;19.10;99.90;;;;;;4989971;28;20797;-63
2023/06/23 08:08:52;;;;;;;8.43;5.90;;;19.20;99.90;;;;;;4976236;28;20414;-64
2023/06/23 08:11:18;;;;;;;7.97;5.60;;;19.30;99.90;;;;;;4977637;28;20766;-63
2023/06/23 08:13:44;;;;;;;6.70;5.35;;;19.30;99.90;;;;;;4976955;28;20413;-61
2023/06/23 08:16:13;;;;;;;7.10;5.25;;;19.50;99.90;;;;;;4966412;28;20416;-62
2023/06/23 08:18:38;;;;;;;8.05;5.38;;;19.60;99.90;;;;;;4979141;28;20502;-63
2023/06/23 08:21:04;;;;;;;7.23;5.30;;;19.80;99.90;;;;;;4979000;28;20499;-63
2023/06/23 08:23:29;;;;;;;6.93;4.78;;;20.00;99.90;;;;;;4977308;28;20418;-61
2023/06/23 08:25:55;;;;;;;8.00;4.70;;;20.20;99.90;;;;;;4981164;28;20533;-64
2023/06/23 08:28:21;;;;;;;7.43;4.70;;;20.40;99.90;;;;;;4980242;28;20829;-64
2023/06/23 08:30:46;;;;;;;9.48;4.90;;;20.60;99.90;;;;;;4978467;28;20406;-64
2023/06/23 08:33:12;;;;;;;7.80;4.50;;;20.90;99.90;;;;;;4981433;28;20406;-62
2023/06/23 08:35:41;;;;;;;5.97;4.17;;;21.10;99.90;;;;;;4985787;28;20485;-64
2023/06/23 08:38:06;;;;;;;7.25;4.78;;;21.40;99.90;;;;;;4992286;28;20446;-63
2023/06/23 08:40:34;;;;;;;6.03;4.38;;;21.70;99.90;;;;;;4985285;28;20445;-62
2023/06/23 08:43:00;;;;;;;6.45;4.63;;;22.00;99.90;;;;;;4982032;28;20948;-63
2023/06/23 08:45:27;;;;;;;8.15;4.60;;;22.40;99.90;;;;;;4983069;28;20440;-64
2023/06/23 08:47:56;;;;;;;5.65;4.50;;;22.60;99.90;;;;;;4984821;28;20714;-64
2023/06/23 08:50:22;;;;;;;8.02;4.72;;;22.90;99.90;;;;;;4997071;28;20451;-65
2023/06/23 08:52:48;;;;;;;6.27;4.67;;;23.20;99.90;;;;;;4991677;28;20410;-64
2023/06/23 08:55:15;;;;;;;5.85;4.30;;;23.40;99.90;;;;;;4990415;28;20408;-64
2023/06/23 08:57:41;;;;;;;6.50;4.60;;;23.60;99.90;;;;;;4975346;28;20412;-63
2023/06/23 09:00:07;;;;;;;6.97;5.03;;;23.80;99.30;;;;;;4985574;28;20515;-65
2023/06/23 09:02:33;;;;;;;6.13;4.40;;;24.00;99.90;;;;;;4994180;28;20404;-64
2023/06/23 09:04:59;;;;;;;6.30;4.80;;;24.20;98.90;;;;;;4993977;28;20766;-65
2023/06/23 09:07:26;;;;;;;7.68;4.90;;;24.40;98.10;;;;;;4986019;28;20415;-62
2023/06/23 09:09:52;;;;;;;6.85;5.45;;;24.50;97.80;;;;;;4988127;28;20410;-65
2023/06/23 09:12:21;;;;;;;6.40;4.97;;;24.70;98.10;;;;;;4985468;28;20400;-65
2023/06/23 09:14:51;;;;;;;7.57;5.07;;;24.80;97.50;;;;;;4984353;28;20846;-64
2023/06/23 09:17:22;;;;;;;6.63;5.25;;;25.00;96.90;;;;;;4990441;28;20441;-64
2023/06/23 09:19:49;;;;;;;5.82;4.50;;;25.20;97.20;;;;;;4987145;28;20485;-64
2023/06/23 09:22:18;;;;;;;6.78;4.55;;;25.30;96.10;;;;;;4991133;28;20446;-65
2023/06/23 09:24:44;;;;;;;5.32;3.78;;;25.40;95.10;;;;;;4982466;28;20415;-62
2023/06/23 09:27:10;;;;;;;5.57;4.10;;;25.50;94.50;;;;;;4991699;28;20415;-65
2023/06/23 09:29:39;;;;;;;5.68;3.78;;;25.60;94.00;;;;;;4990180;28;20424;-65
2023/06/23 09:32:07;;;;;;;6.35;4.13;;;25.80;93.00;;;;;;4993810;28;20417;-65
2023/06/23 09:34:38;;;;;;;5.53;4.22;;;26.00;92.60;;;;;;4989843;28;20426;-64
2023/06/23 09:37:08;;;;;;;5.80;4.00;;;26.10;92.40;;;;;;4984570;28;20539;-62
2023/06/23 09:39:37;;;;;;;6.43;4.32;;;26.30;92.60;;;;;;4979514;28;20726;-65
2023/06/23 09:42:13;;;;;;;5.25;3.67;;;26.50;92.20;;;;;;4991295;28;20398;-65
2023/06/23 09:44:41;;;;;;;5.07;3.92;;;26.70;91.40;;;;;;4991878;28;20409;-65
2023/06/23 09:47:07;;;;;;;5.68;4.10;;;26.80;88.90;;;;;;4984468;28;20408;-65
2023/06/23 09:49:48;;;;;;;4.80;3.88;;;26.90;88.90;;;;;;4983737;28;20422;-64
2023/06/23 09:52:22;;;;;;;6.50;4.40;;;27.00;88.00;;;;;;4987906;28;20426;-65
2023/06/23 09:54:48;;;;;;;3.53;3.10;;;27.00;88.40;;;;;;4991546;28;20399;-65
2023/06/23 09:57:15;;;;;;;10.50;3.75;;;27.20;85.80;;;;;;4982338;28;20423;-65
2023/06/23 09:59:43;;;;;;;5.93;4.07;;;27.30;84.50;;;;;;4978163;28;20527;-65
2023/06/23 10:02:18;;;;;;;4.90;3.57;;;27.50;86.20;;;;;;5000096;28;20539;-64
2023/06/23 10:04:45;;;;;;;5.38;3.78;;;27.60;86.80;;;;;;4982170;28;20968;-64
2023/06/23 10:07:24;;;;;;;5.07;4.18;;;27.80;85.00;;;;;;4983266;28;20500;-66
2023/06/23 10:09:52;;;;;;;5.33;4.27;;;27.90;84.30;;;;;;4987000;28;20418;-64
2023/06/23 10:12:22;;;;;;;5.70;4.20;;;27.80;83.10;;;;;;4985268;28;20499;-64
2023/06/23 10:14:51;;;;;;;6.60;4.80;;;27.70;82.60;;;;;;4988141;28;20395;-64
2023/06/23 10:17:17;;;;;;;6.70;4.43;;;27.50;83.50;;;;;;4981640;28;20406;-64
2023/06/23 10:19:47;;;;;;;6.97;4.53;;;27.40;83.40;;;;;;4982523;28;20408;-65
2023/06/23 10:22:20;;;;;;;6.22;4.57;;;27.40;83.90;;;;;;4986837;28;20428;-65
2023/06/23 10:24:50;;;;;;;6.38;4.63;;;27.40;82.90;;;;;;4990497;28;20481;-64
2023/06/23 10:27:27;;;;;;;5.82;4.22;;;27.40;84.20;;;;;;4999883;28;20405;-66
2023/06/23 10:29:56;;;;;;;5.40;3.85;;;27.50;84.10;;;;;;4983536;28;20397;-64
2023/06/23 10:32:27;;;;;;;5.38;4.07;;;27.70;83.10;;;;;;4985210;28;20408;-65
2023/06/23 10:34:56;;;;;;;5.07;3.75;;;27.90;82.80;;;;;;4980516;28;20856;-64
2023/06/23 10:37:23;;;;;;;6.13;4.10;;;28.10;82.30;;;;;;4978778;28;20830;-64
2023/06/23 10:39:57;;;;;;;5.20;3.93;;;28.30;81.50;;;;;;4985662;28;20496;-64
2023/06/23 10:42:24;;;;;;;4.97;3.90;;;28.40;80.30;;;;;;4987571;28;20440;-64
2023/06/23 10:44:50;;;;;;;5.23;4.03;;;28.60;81.40;;;;;;4985653;28;20408;-66
2023/06/23 10:47:16;;;;;;;6.82;4.47;;;28.50;79.40;;;;;;4988185;28;20406;-64
2023/06/23 10:49:44;;;;;;;6.43;4.45;;;28.40;80.40;;;;;;4983303;28;20412;-64
2023/06/23 10:52:10;;;;;;;5.28;3.70;;;28.40;81.80;;;;;;4981809;28;20446;-65
2023/06/23 10:54:37;;;;;;;5.50;3.65;;;28.60;79.30;;;;;;4995316;28;20437;-65
2023/06/23 10:57:20;;;;;;;5.18;3.55;;;28.50;75.70;;;;;;4987991;28;20461;-64
2023/06/23 11:00:00;;;;;;;5.53;3.60;;;28.40;75.30;;;;;;4962196;28;20486;-64
2023/06/23 11:02:27;;;;;;;5.47;3.55;;;28.20;76.00;;;;;;4978055;28;20453;-67
2023/06/23 11:05:01;;;;;;;5.15;3.35;;;28.10;77.60;;;;;;4987833;28;20430;-64
2023/06/23 11:07:27;;;;;;;4.93;3.28;;;28.10;78.00;;;;;;4985293;28;20890;-64
2023/06/23 11:09:58;;;;;;;6.05;3.33;;;28.20;78.80;;;;;;4974683;28;20438;-65
2023/06/23 11:12:38;;;;;;;5.20;3.10;;;28.30;77.30;;;;;;4977503;28;20789;-64
2023/06/23 11:15:21;;;;;;;6.50;3.60;;;28.50;76.60;;;;;;4977792;28;20435;-66
2023/06/23 11:17:51;;;;;;;3.90;3.20;;;28.50;76.20;;;;;;4974267;28;20467;-64
2023/06/23 11:20:20;;;;;;;4.30;3.45;;;28.60;76.40;;;;;;4982496;28;20438;-64
2023/06/23 11:22:53;;;;;;;6.65;3.40;;;28.70;74.70;;;;;;4980795;28;20419;-64
2023/06/23 11:25:29;;;;;;;5.32;3.20;;;28.80;75.40;;;;;;4984558;28;20448;-66
2023/06/23 11:28:30;;;;;;;5.38;3.40;;;28.90;74.80;;;;;;4984817;28;20438;-67
2023/06/23 11:31:15;;;;;;;5.77;3.50;;;29.00;73.60;;;;;;4950649;28;20925;-64
2023/06/23 11:33:43;;;;;;;6.60;4.10;;;29.20;73.40;;;;;;4993359;28;20899;-65
2023/06/23 11:36:16;;;;;;;5.80;3.50;;;29.10;70.90;;;;;;4997554;28;20838;-64
2023/06/23 11:38:43;;;;;;;6.25;3.40;;;29.10;73.10;;;;;;4989026;28;20422;-65
2023/06/23 11:41:09;;;;;;;6.20;3.60;;;29.10;72.60;;;;;;4980628;28;20446;-64
2023/06/23 11:43:42;;;;;;;4.57;3.70;;;29.30;71.20;;;;;;4986062;28;20458;-66
2023/06/23 11:46:12;;;;;;;8.52;3.70;;;29.50;69.70;;;;;;4986409;28;20436;-64
2023/06/23 11:48:42;;;;;;;5.10;4.03;;;29.60;68.50;;;;;;5000912;28;20445;-64
2023/06/23 11:51:12;;;;;;;5.85;3.72;;;29.50;68.00;;;;;;4977578;28;20412;-65
2023/06/23 11:53:42;;;;;;;5.30;3.88;;;29.40;66.90;;;;;;4988481;28;20558;-64
2023/06/23 11:56:09;;;;;;;6.30;3.60;;;29.30;66.90;;;;;;4987013;28;20895;-65
2023/06/23 11:58:35;;;;;;;4.93;3.50;;;29.30;69.00;;;;;;4978497;28;20546;-64
2023/06/23 12:01:01;;;;;;;6.40;3.90;;;29.30;69.80;;;;;;4989856;28;20426;-64
2023/06/23 12:03:31;;;;;;;5.03;3.80;;;29.40;69.60;;;;;;4981309;28;20438;-64
2023/06/23 12:05:59;;;;;;;5.13;3.80;;;29.50;67.50;;;;;;4978808;28;20434;-64
2023/06/23 12:08:26;;;;;;;5.72;3.50;;;29.60;67.00;;;;;;4986611;28;20406;-64
2023/06/23 12:10:53;;;;;;;6.15;3.58;;;29.60;68.40;;;;;;4981876;28;20414;-64
2023/06/23 12:13:19;;;;;;;4.85;3.70;;;29.70;68.50;;;;;;4981719;28;20493;-64
2023/06/23 12:15:45;;;;;;;5.60;3.90;;;29.80;68.70;;;;;;4986553;28;20450;-64
2023/06/23 12:18:12;;;;;;;4.95;3.42;;;29.90;68.60;;;;;;5020526;22;20564;-65
2023/06/23 12:20:39;;;;;;;6.63;3.70;;;30.00;68.50;;;;;;5025779;28;20955;-65
2023/06/23 12:23:08;;;;;;;4.72;3.60;;;30.20;68.30;;;;;;5012359;28;20397;-64
2023/06/23 12:25:38;;;;;;;5.00;3.50;;;30.30;66.80;;;;;;5022092;28;20419;-63
2023/06/23 12:28:05;;;;;;;8.10;4.00;;;30.20;64.70;;;;;;5017326;28;20925;-65
2023/06/23 12:30:43;;;;;;;4.77;3.50;;;30.20;66.00;;;;;;5017281;28;20410;-65
2023/06/23 12:33:30;;;;;;;4.72;3.70;;;30.20;65.70;;;;;;4998177;28;20461;-65
2023/06/23 12:36:02;;;;;;;5.80;3.77;;;30.20;65.20;;;;;;5013058;28;20517;-65
2023/06/23 12:38:30;;;;;;;4.40;3.13;;;30.20;64.10;;;;;;5020974;28;20872;-65
2023/06/23 12:41:12;;;;;;;4.10;2.93;;;30.20;64.50;;;;;;5010400;28;20419;-65
2023/06/23 12:43:39;;;;;;;4.45;3.28;;;30.30;63.80;;;;;;5011913;28;20397;-65
2023/06/23 12:46:04;;;;;;;4.70;3.30;;;30.40;63.50;;;;;;5018274;28;20423;-65
2023/06/23 12:48:30;;;;;;;4.53;2.78;;;30.60;63.50;;;;;;5005914;28;20506;-65
2023/06/23 12:50:58;;;;;;;5.17;3.27;;;30.60;63.30;;;;;;4991313;28;20404;-65
2023/06/23 12:53:23;;;;;;;5.78;3.20;;;30.70;63.60;;;;;;5007918;28;20404;-65
2023/06/23 12:55:49;;;;;;;5.00;3.40;;;30.70;62.40;;;;;;4997053;28;20420;-65
2023/06/23 12:58:15;;;;;;;5.28;3.20;;;30.70;62.00;;;;;;5008707;28;20411;-63
2023/06/23 13:00:42;;;;;;;4.90;3.40;;;30.70;61.20;;;;;;5014646;28;20409;-65
2023/06/23 13:03:13;;;;;;;5.43;3.30;;;30.70;61.10;;;;;;5010457;28;20762;-65
2023/06/23 13:05:40;;;;;;;5.43;3.17;;;30.70;60.10;;;;;;5003695;28;20938;-65
2023/06/23 13:08:06;;;;;;;5.10;3.17;;;30.60;60.20;;;;;;4991073;28;20495;-65
2023/06/23 13:10:31;;;;;;;4.75;3.30;;;30.60;59.60;;;;;;4997527;28;20764;-65
2023/06/23 13:12:57;;;;;;;6.47;3.70;;;30.50;60.10;;;;;;5024628;28;20406;-65
2023/06/23 13:15:23;;;;;;;5.53;3.10;;;30.40;59.40;;;;;;5016234;28;20492;-65
2023/06/23 13:17:49;;;;;;;5.07;3.28;;;30.30;59.80;;;;;;4990671;28;20413;-65
2023/06/23 13:20:15;;;;;;;5.05;3.40;;;30.30;59.50;;;;;;5000815;28;20921;-65
2023/06/23 13:22:41;;;;;;;8.77;3.70;;;30.30;60.10;;;;;;5014819;28;20428;-65
2023/06/23 13:25:07;;;;;;;6.38;3.40;;;30.30;59.80;;;;;;5017264;28;20984;-65
2023/06/23 13:27:32;;;;;;;4.37;3.40;;;30.20;60.20;;;;;;5015166;28;20496;-65
2023/06/23 13:29:58;;;;;;;5.63;3.63;;;30.20;61.00;;;;;;5000830;28;20475;-65